岡山グライダークラブ活動状況掲示板

岡山グライダークラブ
岡山市浦安南町639-1 岡南飛行場
 使用機:シャイベ式 SF25C型 ファルケ   JA2330
      ヴァレンティン式17E型 タイフーン  JA2342
 練習日:毎日曜日  クラブルーム:電話 086-265-1810
この掲示板は岡山グライダークラブの活動状況をお知らせする掲示板です。
!!!この掲示板は投稿規制をしています。!!!
クラブ関連各種情報は 岡山グライダークラブクラブルーム      を       .
  ブリーフイング情報は  岡山グライダークラブブリーフィングルーム  をご覧下さい。 .
※写真はクリックすると拡大して見ることが出来ます。
岡南飛行場へのアクセス等は 岡南飛行場管理事務所 をご覧ください。
クラブの ホームページ ができました。

!!!最近のコロナ感染拡大に伴い、当面の間、見学者等の受入を中止しております。再開まで今しばらくお待ちください!!!

 
04月04日
by OGC at 2021/4/4(日) 20:48:26 No.20210404204538  削除コメント
1024 x 768 x 62,034バイト
No.1

04月04日
本日の参加者
  会員      10名
  その他      0名


@本日の様子






METAR
RJBK 040000Z 07006KT 15KM -SHRA FEW0020CU BKN050SC 17/14 Q1010 A2984
RJOB 040000Z 06008KT 9999 FEW010 BKN050 15/14 Q1010
RJOT 040000Z 36004KT 330V040 9999 FEW020 SCT070 BKN160 18/14 Q1010
RJOA 040000Z VRB01KT 7000 R10/1300VP1800D SHRA BCFG FEW000 BKN030 14/13 Q1010
TAF
RJOB 032308Z 0400/0506 11006KT 4000 -SHRA BR FEW001 BKN008 BKN015
     TEMPO 0400/0403 1500 SHRA BR BCFG FEW000 SCT003 BKN005
     BECMG 0402/0404 23008KT
     TEMPO 0403/0408 2000 SHRA BR BCFG FEW000 BKN005 BKN010
     BECMG 0407/0409 36010KT
     BECMG 0409/0411 9999 NSW FEW015 SCT020 BKN035
RJOT 032312Z 0400/0506 15004KT 6000 -SHRA FEW001 SCT008 BKN015
     TEMPO 0401/0406 4000 SHRA BR FEW001 BKN008 BKN015
     BECMG 0406/0408 27007KT
     TEMPO 0406/0409 2000 TSRA BR FEW001 BKN005 BKN012 FEW020CB
     TEMPO 0409/0412 2000 SHRA BR FEW001 BKN005 BKN012
     BECMG 0500/0503 36008KT
RJOA 032310Z 0400/0506 16004KT 3000 -SHRA BR BCFG FEW000 BKN008 BKN012
     TEMPO 0400/0406 1500 SHRA BR BCFG FEW000 SCT003 BKN005
     BECMG 0401/0403 23006KT
     BECMG 0406/0408 33016KT 9999 NSW FEW015 BKN025
     BECMG 0415/0418 01010KT


本日は、試運転後のブリーフィング中に雨が降り出し、一日中、雨が予想され、「晴れの国、岡山」の神通力に期待していましたが、フライトできそうな状況には至りませんでした。
格納庫では、またまた、先週に引き続き、普段できていなかった整備等を行いました。


解散    16:30

本日のフライトはありません

    << 戻る || ホームページ || 最新の掲示板へ